createdAt,value
2023-05-08T00:00:15.563Z,22.25
2023-05-08T00:02:42.531Z,22.00
2023-05-08T00:05:09.563Z,20.00
2023-05-08T00:07:37.802Z,23.25
2023-05-08T00:10:06.428Z,24.00
2023-05-08T00:12:33.836Z,22.00
2023-05-08T00:15:01.221Z,24.25
2023-05-08T00:17:28.156Z,28.00
2023-05-08T00:19:55.310Z,32.00
2023-05-08T00:22:22.352Z,26.50
2023-05-08T00:24:49.233Z,24.00
2023-05-08T00:27:16.304Z,28.75
2023-05-08T00:29:43.568Z,30.00
2023-05-08T00:32:10.611Z,27.00
2023-05-08T00:34:37.491Z,24.75
2023-05-08T00:37:04.482Z,21.00
2023-05-08T00:39:31.397Z,24.00
2023-05-08T00:41:58.297Z,27.00
2023-05-08T00:44:25.208Z,28.00
2023-05-08T00:46:52.407Z,26.75
2023-05-08T00:49:19.446Z,26.50
2023-05-08T00:51:47.876Z,25.25
2023-05-08T00:54:15.769Z,25.00
2023-05-08T00:56:43.917Z,26.00
2023-05-08T00:59:13.649Z,29.75
2023-05-08T01:01:41.306Z,29.00
2023-05-08T01:04:08.737Z,28.00
2023-05-08T01:06:36.148Z,31.50
2023-05-08T01:09:03.859Z,32.00
2023-05-08T01:11:42.587Z,32.50
2023-05-08T01:14:30.085Z,35.00
2023-05-08T01:17:21.514Z,32.00
2023-05-08T01:19:51.543Z,31.50
2023-05-08T01:22:38.964Z,32.00
2023-05-08T01:25:16.789Z,32.00
2023-05-08T01:27:55.620Z,32.00
2023-05-08T01:30:51.884Z,27.75
2023-05-08T01:33:33.682Z,30.00
2023-05-08T01:36:25.270Z,26.00
2023-05-08T01:39:01.757Z,22.00
2023-05-08T01:41:32.166Z,19.00
2023-05-08T01:44:20.375Z,20.00
2023-05-08T01:46:51.559Z,21.00
2023-05-08T01:49:27.700Z,21.00
2023-05-08T01:52:08.903Z,26.50
2023-05-08T01:54:49.021Z,28.00
2023-05-08T01:57:18.640Z,31.50
2023-05-08T01:59:47.561Z,28.00
2023-05-08T02:02:16.053Z,27.00
2023-05-08T02:04:44.338Z,26.00
2023-05-08T02:07:11.474Z,29.75
2023-05-08T02:09:41.355Z,29.00
2023-05-08T02:12:10.037Z,29.00
2023-05-08T02:14:37.909Z,27.00
2023-05-08T02:17:07.620Z,24.00
2023-05-08T02:19:36.763Z,23.00
2023-05-08T02:22:05.680Z,24.50
2023-05-08T02:24:35.257Z,25.00
2023-05-08T02:27:02.847Z,23.00
2023-05-08T02:29:30.671Z,23.00
2023-05-08T02:31:59.874Z,23.00
2023-05-08T02:34:30.554Z,23.00
2023-05-08T02:36:59.449Z,26.75
2023-05-08T02:39:30.661Z,26.00
2023-05-08T02:41:58.048Z,26.00
2023-05-08T02:44:25.265Z,26.75
2023-05-08T02:46:55.024Z,26.00
2023-05-08T02:49:32.097Z,22.50
2023-05-08T02:52:19.288Z,21.00
2023-05-08T02:55:06.473Z,23.00
2023-05-08T02:57:42.661Z,23.00
2023-05-08T03:00:16.638Z,24.50
2023-05-08T03:03:33.180Z,26.00
2023-05-08T03:06:03.584Z,27.00
2023-05-08T03:08:34.375Z,26.25
2023-05-08T03:11:08.513Z,27.00
2023-05-08T03:13:38.904Z,29.00
2023-05-08T03:16:09.638Z,31.00
2023-05-08T03:18:45.175Z,32.00
2023-05-08T03:21:18.082Z,32.00
2023-05-08T03:23:48.025Z,32.00
2023-05-08T03:26:18.490Z,32.00
2023-05-08T03:28:50.682Z,32.00
2023-05-08T03:31:22.233Z,32.00
2023-05-08T03:33:54.044Z,32.50
2023-05-08T03:36:22.419Z,33.00
2023-05-08T03:38:49.365Z,32.50
2023-05-08T03:41:16.514Z,32.00
2023-05-08T03:43:44.118Z,31.00
2023-05-08T03:46:12.288Z,31.00
2023-05-08T03:48:41.371Z,31.00
2023-05-08T03:51:08.391Z,33.50
2023-05-08T03:53:37.429Z,35.00
2023-05-08T03:56:05.230Z,34.00
2023-05-08T03:58:41.226Z,33.00
2023-05-08T04:01:26.925Z,31.00
2023-05-08T04:04:00.242Z,33.50
2023-05-08T04:06:48.824Z,33.00
2023-05-08T04:09:37.506Z,33.00
2023-05-08T04:12:20.047Z,32.00
2023-05-08T04:14:55.710Z,32.00
2023-05-08T04:17:41.170Z,32.00
2023-05-08T04:20:13.886Z,32.00
2023-05-08T04:22:43.505Z,32.00
2023-05-08T04:25:13.384Z,31.00
2023-05-08T04:27:41.704Z,32.00
2023-05-08T04:30:10.344Z,31.00
2023-05-08T04:32:40.583Z,31.00
2023-05-08T04:35:09.628Z,31.00
2023-05-08T04:37:38.050Z,31.00
2023-05-08T04:40:05.675Z,29.00
2023-05-08T04:42:33.830Z,30.00
2023-05-08T04:45:01.290Z,30.00
2023-05-08T04:47:28.300Z,30.00
2023-05-08T04:49:55.391Z,30.00
2023-05-08T04:52:22.252Z,30.50
2023-05-08T04:54:49.219Z,30.50
2023-05-08T04:57:16.127Z,29.00
2023-05-08T04:59:43.189Z,29.50
2023-05-08T05:02:10.047Z,29.50
2023-05-08T05:04:37.917Z,29.50
2023-05-08T05:07:05.975Z,30.00
2023-05-08T05:09:33.524Z,30.00
2023-05-08T05:12:00.548Z,29.50
2023-05-08T05:14:27.718Z,29.00
2023-05-08T05:16:54.564Z,29.00
2023-05-08T05:19:21.609Z,28.00
2023-05-08T05:21:48.549Z,28.00
2023-05-08T05:24:15.516Z,28.00
2023-05-08T05:26:42.411Z,28.00
2023-05-08T05:29:09.580Z,28.50
2023-05-08T05:31:36.490Z,28.00
2023-05-08T05:34:03.526Z,28.00
2023-05-08T05:36:30.365Z,28.00
2023-05-08T05:38:57.581Z,29.00
2023-05-08T05:41:24.539Z,28.00
2023-05-08T05:43:51.726Z,29.00
2023-05-08T05:46:18.663Z,28.00
2023-05-08T05:48:46.078Z,28.25
2023-05-08T05:51:13.627Z,28.50
2023-05-08T05:53:40.882Z,28.00
2023-05-08T05:56:08.033Z,28.00
2023-05-08T05:58:34.953Z,29.00
2023-05-08T06:01:01.895Z,28.00
2023-05-08T06:03:30.186Z,27.50
2023-05-08T06:05:57.129Z,29.00
2023-05-08T06:08:26.811Z,28.00
2023-05-08T06:10:56.173Z,28.00
2023-05-08T06:13:23.272Z,28.00
2023-05-08T06:15:50.972Z,27.50
2023-05-08T06:18:18.575Z,28.00
2023-05-08T06:20:45.405Z,29.00
2023-05-08T06:23:12.320Z,29.00
2023-05-08T06:25:39.177Z,28.00
2023-05-08T06:28:06.473Z,28.00
2023-05-08T06:30:33.402Z,28.00
2023-05-08T06:33:00.471Z,27.50
2023-05-08T06:35:27.420Z,28.25
2023-05-08T06:37:54.356Z,28.75
2023-05-08T06:40:21.280Z,28.00
2023-05-08T06:42:48.146Z,28.00
2023-05-08T06:45:15.300Z,28.00
2023-05-08T06:47:42.471Z,28.00
2023-05-08T06:50:09.887Z,27.50
2023-05-08T06:52:36.834Z,28.00
2023-05-08T06:55:03.887Z,27.75
2023-05-08T06:57:30.826Z,27.00
2023-05-08T06:59:57.680Z,27.00
2023-05-08T07:02:24.646Z,27.00
2023-05-08T07:04:51.667Z,27.00
2023-05-08T07:07:18.635Z,27.00
2023-05-08T07:09:45.529Z,27.00
2023-05-08T07:12:12.459Z,28.00
2023-05-08T07:14:39.277Z,28.00
2023-05-08T07:17:06.539Z,28.00
2023-05-08T07:19:35.872Z,28.00
2023-05-08T07:22:02.860Z,29.00
2023-05-08T07:24:29.876Z,27.50
2023-05-08T07:26:56.885Z,27.00
2023-05-08T07:29:23.902Z,29.50
2023-05-08T07:31:50.894Z,28.50
2023-05-08T07:34:18.009Z,28.50
2023-05-08T07:36:45.350Z,28.00
2023-05-08T07:39:12.248Z,28.50
2023-05-08T07:41:39.305Z,27.00
2023-05-08T07:44:06.525Z,28.00
2023-05-08T07:46:33.565Z,29.00
2023-05-08T07:49:00.700Z,29.00
2023-05-08T07:51:27.563Z,28.50
2023-05-08T07:53:54.510Z,28.00
2023-05-08T07:56:22.020Z,28.00
2023-05-08T07:58:49.068Z,29.00
2023-05-08T08:01:16.164Z,28.50
2023-05-08T08:03:43.174Z,29.00
2023-05-08T08:06:10.569Z,27.00
2023-05-08T08:08:37.528Z,27.00
2023-05-08T08:11:04.509Z,27.00
2023-05-08T08:13:33.723Z,27.00
2023-05-08T08:16:03.132Z,28.75
2023-05-08T08:18:30.522Z,28.00
2023-05-08T08:20:57.518Z,28.50
2023-05-08T08:23:24.343Z,28.00
2023-05-08T08:25:51.266Z,28.50
2023-05-08T08:28:18.268Z,29.00
2023-05-08T08:30:45.230Z,28.00
2023-05-08T08:33:17.553Z,28.50
2023-05-08T08:35:46.006Z,29.00
2023-05-08T08:38:12.836Z,29.50
2023-05-08T08:40:40.859Z,29.00
2023-05-08T08:43:08.224Z,30.00
2023-05-08T08:45:36.781Z,29.00
2023-05-08T08:48:04.982Z,28.50
2023-05-08T08:50:33.530Z,29.00
2023-05-08T08:53:08.544Z,28.50
2023-05-08T08:55:39.745Z,29.00
2023-05-08T08:58:17.104Z,30.00
2023-05-08T09:00:44.448Z,28.50
2023-05-08T09:03:29.948Z,29.00
2023-05-08T09:06:00.195Z,28.50
2023-05-08T09:08:27.093Z,29.00
2023-05-08T09:10:55.782Z,29.00
2023-05-08T09:13:23.122Z,29.00
2023-05-08T09:15:50.273Z,28.00
2023-05-08T09:18:17.218Z,28.00
2023-05-08T09:21:03.044Z,29.00
2023-05-08T09:23:30.210Z,29.50
2023-05-08T09:25:59.918Z,29.00
2023-05-08T09:28:26.944Z,30.00
2023-05-08T09:30:56.491Z,29.00
2023-05-08T09:33:28.454Z,29.00
2023-05-08T09:35:56.985Z,29.00
2023-05-08T09:38:38.522Z,30.00
2023-05-08T09:41:16.526Z,30.00
2023-05-08T09:44:02.119Z,29.00
2023-05-08T09:46:29.493Z,30.00
2023-05-08T09:48:58.416Z,30.00
2023-05-08T09:51:27.231Z,30.00
2023-05-08T09:53:56.000Z,29.50
2023-05-08T09:56:34.452Z,29.00
2023-05-08T09:59:03.497Z,29.00
2023-05-08T10:01:35.772Z,29.00
2023-05-08T10:04:03.756Z,30.25
2023-05-08T10:06:30.645Z,31.00
2023-05-08T10:09:14.777Z,29.50
2023-05-08T10:11:49.374Z,30.00
2023-05-08T10:14:16.345Z,29.00
2023-05-08T10:16:45.758Z,29.00
2023-05-08T10:19:15.595Z,31.00
2023-05-08T10:21:50.373Z,30.00
2023-05-08T10:24:18.506Z,30.00
2023-05-08T10:27:05.500Z,29.50
2023-05-08T10:29:52.227Z,30.00
2023-05-08T10:32:20.862Z,29.00
2023-05-08T10:34:53.490Z,29.00
2023-05-08T10:37:20.687Z,28.50
2023-05-08T10:39:49.190Z,29.00
2023-05-08T10:42:16.438Z,29.75
2023-05-08T10:44:43.855Z,29.50
2023-05-08T10:47:31.857Z,29.00
2023-05-08T10:50:10.042Z,30.00
2023-05-08T10:52:42.718Z,30.00
2023-05-08T10:55:19.739Z,30.00
2023-05-08T10:58:02.754Z,30.50
2023-05-08T11:00:53.921Z,30.50
2023-05-08T11:03:31.386Z,30.50
2023-05-08T11:06:00.973Z,30.00
2023-05-08T11:08:29.806Z,29.00
2023-05-08T11:10:59.548Z,30.00
2023-05-08T11:13:33.759Z,30.00
2023-05-08T11:16:00.911Z,30.00
2023-05-08T11:18:41.811Z,28.00
2023-05-08T11:21:21.463Z,29.00
2023-05-08T11:23:57.074Z,29.50
2023-05-08T11:26:39.489Z,30.00
2023-05-08T11:29:17.078Z,31.00
2023-05-08T11:31:51.242Z,31.00
2023-05-08T11:34:42.986Z,31.00
2023-05-08T11:37:21.736Z,31.00
2023-05-08T11:39:49.202Z,30.50
2023-05-08T11:42:27.323Z,29.50
2023-05-08T11:45:08.723Z,30.00
2023-05-08T11:47:40.789Z,30.50
2023-05-08T11:50:09.676Z,30.50
2023-05-08T11:52:39.204Z,30.00
2023-05-08T11:55:11.544Z,29.75
2023-05-08T11:57:38.684Z,30.00
2023-05-08T12:00:05.799Z,29.00
2023-05-08T12:02:40.005Z,29.00
2023-05-08T12:05:11.080Z,30.00
2023-05-08T12:07:49.777Z,30.00
2023-05-08T12:10:17.759Z,29.50
2023-05-08T12:12:45.468Z,29.50
2023-05-08T12:15:15.240Z,29.00
2023-05-08T12:17:43.146Z,29.00
2023-05-08T12:20:14.043Z,30.00
2023-05-08T12:22:42.405Z,29.50
2023-05-08T12:25:16.587Z,30.50
2023-05-08T12:27:44.479Z,30.50
2023-05-08T12:30:14.011Z,31.00
2023-05-08T12:32:42.928Z,30.00
2023-05-08T12:35:11.657Z,30.00
2023-05-08T12:37:39.006Z,29.50
2023-05-08T12:40:07.322Z,29.00
2023-05-08T12:42:49.776Z,29.00
2023-05-08T12:45:26.186Z,29.50
2023-05-08T12:47:54.444Z,30.00
2023-05-08T12:50:22.202Z,29.00
2023-05-08T12:52:51.513Z,29.50
2023-05-08T12:55:24.143Z,29.00
2023-05-08T12:58:03.019Z,29.00
2023-05-08T13:00:47.586Z,30.00
2023-05-08T13:03:27.081Z,29.00
2023-05-08T13:05:57.220Z,29.00
2023-05-08T13:08:38.448Z,30.00
2023-05-08T13:11:06.504Z,29.00
2023-05-08T13:13:36.010Z,30.00
2023-05-08T13:16:05.042Z,29.00
2023-05-08T13:18:33.167Z,30.00
2023-05-08T13:21:00.143Z,29.00
2023-05-08T13:23:27.890Z,29.00
2023-05-08T13:25:55.841Z,30.00
2023-05-08T13:28:22.865Z,29.00
2023-05-08T13:30:51.911Z,29.00
2023-05-08T13:33:18.835Z,29.00
2023-05-08T13:35:45.801Z,29.00
2023-05-08T13:38:12.715Z,29.25
2023-05-08T13:40:39.678Z,29.00
2023-05-08T13:43:06.567Z,28.50
2023-05-08T13:45:33.526Z,28.00
2023-05-08T13:48:00.643Z,29.00
2023-05-08T13:50:28.055Z,29.00
2023-05-08T13:52:55.299Z,28.50
2023-05-08T13:55:22.968Z,29.00
2023-05-08T13:57:50.660Z,28.75
2023-05-08T14:00:18.422Z,29.00
2023-05-08T14:02:45.680Z,29.00
2023-05-08T14:05:13.238Z,28.00
2023-05-08T14:07:40.661Z,28.50
2023-05-08T14:10:10.991Z,28.00
2023-05-08T14:12:39.001Z,28.00
2023-05-08T14:15:06.623Z,28.00
2023-05-08T14:17:33.638Z,29.00
2023-05-08T14:20:00.843Z,29.00
2023-05-08T14:22:30.073Z,29.00
2023-05-08T14:25:00.772Z,29.00
2023-05-08T14:27:29.006Z,28.00
2023-05-08T14:29:55.866Z,28.00
2023-05-08T14:32:23.192Z,29.00
2023-05-08T14:34:53.270Z,29.00
2023-05-08T14:37:20.065Z,29.00
2023-05-08T14:39:47.046Z,29.00
2023-05-08T14:42:22.902Z,29.00
2023-05-08T14:44:51.043Z,27.00
2023-05-08T14:47:17.978Z,29.00
2023-05-08T14:49:44.916Z,28.50
2023-05-08T14:52:13.057Z,29.25
2023-05-08T14:54:40.711Z,29.00
2023-05-08T14:57:08.872Z,28.00
2023-05-08T14:59:35.914Z,27.50
2023-05-08T15:02:02.808Z,28.00
2023-05-08T15:04:31.043Z,28.00
2023-05-08T15:06:57.956Z,27.50
2023-05-08T15:09:24.917Z,28.00
2023-05-08T15:11:51.842Z,28.00
2023-05-08T15:14:23.105Z,28.00
2023-05-08T15:16:52.648Z,28.00
2023-05-08T15:19:19.629Z,28.00
2023-05-08T15:21:46.469Z,28.00
2023-05-08T15:24:13.351Z,27.50
2023-05-08T15:26:40.304Z,27.00
2023-05-08T15:29:07.196Z,27.50
2023-05-08T15:31:34.097Z,27.50
2023-05-08T15:34:00.976Z,28.00
2023-05-08T15:36:28.550Z,29.00
2023-05-08T15:38:55.436Z,28.00
2023-05-08T15:41:22.349Z,29.00
2023-05-08T15:43:49.222Z,28.00
2023-05-08T15:46:16.315Z,28.25
2023-05-08T15:48:43.343Z,29.00
2023-05-08T15:51:10.305Z,28.25
2023-05-08T15:53:37.278Z,28.00
2023-05-08T15:56:07.498Z,28.00
2023-05-08T15:58:34.654Z,29.00
2023-05-08T16:01:01.570Z,29.00
2023-05-08T16:03:28.670Z,29.00
2023-05-08T16:05:55.995Z,29.00
2023-05-08T16:08:23.920Z,29.00
2023-05-08T16:10:51.034Z,30.00
2023-05-08T16:13:17.894Z,29.00
2023-05-08T16:15:44.825Z,28.00
2023-05-08T16:18:11.750Z,28.00
2023-05-08T16:20:41.027Z,28.00
2023-05-08T16:23:10.800Z,27.50
2023-05-08T16:25:37.941Z,27.75
2023-05-08T16:28:04.795Z,28.00
2023-05-08T16:30:31.793Z,27.00
2023-05-08T16:32:58.726Z,28.50
2023-05-08T16:35:25.746Z,29.00
2023-05-08T16:37:52.809Z,27.00
2023-05-08T16:40:19.829Z,28.00
2023-05-08T16:42:46.760Z,27.00
2023-05-08T16:45:15.802Z,28.00
2023-05-08T16:47:42.924Z,28.00
2023-05-08T16:50:10.272Z,28.00
2023-05-08T16:52:37.400Z,27.50
2023-05-08T16:55:04.472Z,27.00
2023-05-08T16:57:31.461Z,28.00
2023-05-08T16:59:58.371Z,29.00
2023-05-08T17:02:25.320Z,28.00
2023-05-08T17:04:52.366Z,27.00
2023-05-08T17:07:19.197Z,27.00
2023-05-08T17:09:46.079Z,28.00
2023-05-08T17:12:13.329Z,28.00
2023-05-08T17:14:40.388Z,28.00
2023-05-08T17:17:07.651Z,27.00
2023-05-08T17:19:34.711Z,27.00
2023-05-08T17:22:01.913Z,28.00
2023-05-08T17:24:32.390Z,28.00
2023-05-08T17:26:59.539Z,27.00
2023-05-08T17:29:26.529Z,27.25
2023-05-08T17:31:53.572Z,27.00
2023-05-08T17:34:21.000Z,27.00
2023-05-08T17:36:48.034Z,27.75
2023-05-08T17:39:15.161Z,28.00
2023-05-08T17:41:42.017Z,28.00
2023-05-08T17:44:08.936Z,27.00
2023-05-08T17:46:38.923Z,27.00
2023-05-08T17:49:05.829Z,27.00
2023-05-08T17:51:32.726Z,28.00
2023-05-08T17:53:59.623Z,27.00
2023-05-08T17:56:26.607Z,27.00
2023-05-08T17:58:57.113Z,26.50
2023-05-08T18:01:24.156Z,27.00
2023-05-08T18:03:53.305Z,28.00
2023-05-08T18:06:20.857Z,28.00
2023-05-08T18:08:48.413Z,27.50
2023-05-08T18:11:23.776Z,28.00
2023-05-08T18:13:52.884Z,26.00
2023-05-08T18:16:21.327Z,28.25
2023-05-08T18:18:49.131Z,28.00
2023-05-08T18:21:18.667Z,27.50
2023-05-08T18:23:45.914Z,28.00
2023-05-08T18:26:16.572Z,28.00
2023-05-08T18:28:44.034Z,28.00
2023-05-08T18:31:11.412Z,28.00
2023-05-08T18:33:41.712Z,28.00
2023-05-08T18:36:08.548Z,26.50
2023-05-08T18:38:35.361Z,28.00
2023-05-08T18:41:03.989Z,27.50
2023-05-08T18:43:30.999Z,27.75
2023-05-08T18:45:58.103Z,27.50
2023-05-08T18:48:27.285Z,28.00
2023-05-08T18:50:54.129Z,25.75
2023-05-08T18:53:20.945Z,27.25
2023-05-08T18:55:47.929Z,27.00
2023-05-08T18:58:14.867Z,28.00
2023-05-08T19:00:41.853Z,28.00
2023-05-08T19:03:08.812Z,28.00
2023-05-08T19:05:35.953Z,27.50
2023-05-08T19:08:02.968Z,27.00
2023-05-08T19:10:29.844Z,27.00
2023-05-08T19:12:56.841Z,27.00
2023-05-08T19:15:24.100Z,26.00
2023-05-08T19:17:51.394Z,27.00
2023-05-08T19:20:18.454Z,27.00
2023-05-08T19:22:45.343Z,26.00
2023-05-08T19:25:12.653Z,27.00
2023-05-08T19:27:40.409Z,27.00
2023-05-08T19:30:07.972Z,27.00
2023-05-08T19:32:35.541Z,27.00
2023-05-08T19:35:05.027Z,26.00
2023-05-08T19:37:32.067Z,27.00
2023-05-08T19:40:05.357Z,28.00
2023-05-08T19:42:32.662Z,27.00
2023-05-08T19:44:59.783Z,27.00
2023-05-08T19:47:29.913Z,27.00
2023-05-08T19:49:56.783Z,25.50
2023-05-08T19:52:27.877Z,25.00
2023-05-08T19:54:55.108Z,26.00
2023-05-08T19:57:22.292Z,26.00
2023-05-08T19:59:49.426Z,26.00
2023-05-08T20:02:16.417Z,27.00
2023-05-08T20:05:04.276Z,27.00
2023-05-08T20:07:32.782Z,27.00
2023-05-08T20:10:00.762Z,26.00
2023-05-08T20:12:27.688Z,26.00
2023-05-08T20:14:54.632Z,26.00
2023-05-08T20:17:22.121Z,25.50
2023-05-08T20:19:49.580Z,26.00
2023-05-08T20:22:16.627Z,26.00
2023-05-08T20:24:43.988Z,27.00
2023-05-08T20:27:11.009Z,27.00
2023-05-08T20:29:38.057Z,27.00
2023-05-08T20:32:06.131Z,26.00
2023-05-08T20:34:33.042Z,26.00
2023-05-08T20:37:01.098Z,27.00
2023-05-08T20:39:28.032Z,27.00
2023-05-08T20:41:55.248Z,27.00
2023-05-08T20:44:22.114Z,26.00
2023-05-08T20:46:49.146Z,26.00
2023-05-08T20:49:16.124Z,26.50
2023-05-08T20:51:43.222Z,26.00
2023-05-08T20:54:10.431Z,26.00
2023-05-08T20:56:37.429Z,26.00
2023-05-08T20:59:04.957Z,26.00
2023-05-08T21:01:32.484Z,26.00
2023-05-08T21:03:59.479Z,24.25
2023-05-08T21:06:26.391Z,24.00
2023-05-08T21:08:53.522Z,26.00
2023-05-08T21:11:20.444Z,26.00
2023-05-08T21:13:47.291Z,27.00
2023-05-08T21:16:14.168Z,24.50
2023-05-08T21:18:41.132Z,24.75
2023-05-08T21:21:22.406Z,27.00
2023-05-08T21:23:49.366Z,26.00
2023-05-08T21:26:20.629Z,26.00
2023-05-08T21:28:47.613Z,25.50
2023-05-08T21:31:14.525Z,26.00
2023-05-08T21:33:42.168Z,26.00
2023-05-08T21:36:09.294Z,26.00
2023-05-08T21:38:36.525Z,26.00
2023-05-08T21:41:07.984Z,26.00
2023-05-08T21:43:36.706Z,26.00
2023-05-08T21:46:05.480Z,25.50
2023-05-08T21:48:33.187Z,26.00
2023-05-08T21:51:00.177Z,26.00
2023-05-08T21:53:28.015Z,26.00
2023-05-08T21:55:54.959Z,26.00
2023-05-08T21:58:21.917Z,25.00
2023-05-08T22:00:48.875Z,25.00
2023-05-08T22:03:15.971Z,25.50
2023-05-08T22:05:42.938Z,23.25
2023-05-08T22:08:09.971Z,23.50
2023-05-08T22:10:37.251Z,24.00
2023-05-08T22:13:04.606Z,25.00
2023-05-08T22:15:31.760Z,25.00
2023-05-08T22:17:59.555Z,24.00
2023-05-08T22:20:26.587Z,23.00
2023-05-08T22:22:53.572Z,23.50
2023-05-08T22:25:20.552Z,25.50
2023-05-08T22:27:48.068Z,26.00
2023-05-08T22:30:15.042Z,26.00
2023-05-08T22:32:42.027Z,25.00
2023-05-08T22:35:08.987Z,25.00
2023-05-08T22:37:35.912Z,25.00
2023-05-08T22:40:02.778Z,24.00
2023-05-08T22:42:29.885Z,25.50
2023-05-08T22:44:57.121Z,23.00
2023-05-08T22:47:24.078Z,23.25
2023-05-08T22:49:50.994Z,25.00
2023-05-08T22:52:17.893Z,25.00
2023-05-08T22:54:44.718Z,25.25
2023-05-08T22:57:11.898Z,26.00
2023-05-08T22:59:38.840Z,25.00
2023-05-08T23:02:05.749Z,24.00
2023-05-08T23:04:32.664Z,25.25
2023-05-08T23:06:59.725Z,25.00
2023-05-08T23:09:26.689Z,25.00
2023-05-08T23:11:53.706Z,24.00
2023-05-08T23:14:20.608Z,22.00
2023-05-08T23:16:47.721Z,25.00
2023-05-08T23:19:15.473Z,23.50
2023-05-08T23:21:42.323Z,24.50
2023-05-08T23:24:09.180Z,25.00
2023-05-08T23:26:36.076Z,23.00
2023-05-08T23:29:02.977Z,25.00
2023-05-08T23:31:29.957Z,24.00
2023-05-08T23:33:56.940Z,24.00
2023-05-08T23:36:23.869Z,23.00
2023-05-08T23:38:50.795Z,22.50
2023-05-08T23:41:17.737Z,24.00
2023-05-08T23:43:44.681Z,24.75
2023-05-08T23:46:11.590Z,23.00
2023-05-08T23:48:38.483Z,23.00
2023-05-08T23:51:05.592Z,21.50
2023-05-08T23:53:32.542Z,23.00
2023-05-08T23:55:59.490Z,24.75
2023-05-08T23:58:26.407Z,24.00
